sensor_id;sensor_type;location;lat;lon;timestamp;P1;durP1;ratioP1;P2;durP2;ratioP2
67442;SDS011;54311;51.726;5.154;2022-07-01T00:01:39;25.58;;;22.80;;
67442;SDS011;54311;51.726;5.154;2022-07-01T00:04:05;31.23;;;25.90;;
67442;SDS011;54311;51.726;5.154;2022-07-01T00:06:32;25.73;;;23.05;;
67442;SDS011;54311;51.726;5.154;2022-07-01T00:08:57;32.28;;;24.08;;
67442;SDS011;54311;51.726;5.154;2022-07-01T00:11:23;26.25;;;23.65;;
67442;SDS011;54311;51.726;5.154;2022-07-01T00:13:48;26.45;;;23.77;;
67442;SDS011;54311;51.726;5.154;2022-07-01T00:16:14;27.45;;;24.85;;
67442;SDS011;54311;51.726;5.154;2022-07-01T00:18:39;26.30;;;23.50;;
67442;SDS011;54311;51.726;5.154;2022-07-01T00:21:04;29.85;;;23.92;;
67442;SDS011;54311;51.726;5.154;2022-07-01T00:23:30;24.95;;;22.35;;
67442;SDS011;54311;51.726;5.154;2022-07-01T00:25:56;28.73;;;24.48;;
67442;SDS011;54311;51.726;5.154;2022-07-01T00:28:21;27.42;;;23.83;;
67442;SDS011;54311;51.726;5.154;2022-07-01T00:30:47;26.85;;;23.95;;
67442;SDS011;54311;51.726;5.154;2022-07-01T00:33:12;27.05;;;23.30;;
67442;SDS011;54311;51.726;5.154;2022-07-01T00:35:37;25.45;;;22.83;;
67442;SDS011;54311;51.726;5.154;2022-07-01T00:38:03;27.00;;;24.33;;
67442;SDS011;54311;51.726;5.154;2022-07-01T00:40:28;26.67;;;24.10;;
67442;SDS011;54311;51.726;5.154;2022-07-01T00:42:55;27.02;;;22.92;;
67442;SDS011;54311;51.726;5.154;2022-07-01T00:45:21;31.95;;;24.85;;
67442;SDS011;54311;51.726;5.154;2022-07-01T00:47:46;24.88;;;22.52;;
67442;SDS011;54311;51.726;5.154;2022-07-01T00:50:13;25.35;;;22.75;;
67442;SDS011;54311;51.726;5.154;2022-07-01T00:52:39;28.13;;;22.88;;
67442;SDS011;54311;51.726;5.154;2022-07-01T00:55:06;24.83;;;22.27;;
67442;SDS011;54311;51.726;5.154;2022-07-01T00:57:34;26.17;;;23.40;;
67442;SDS011;54311;51.726;5.154;2022-07-01T01:00:01;25.95;;;23.35;;
67442;SDS011;54311;51.726;5.154;2022-07-01T01:02:29;26.88;;;24.00;;
67442;SDS011;54311;51.726;5.154;2022-07-01T01:04:55;26.13;;;23.40;;
67442;SDS011;54311;51.726;5.154;2022-07-01T01:07:21;26.25;;;23.38;;
67442;SDS011;54311;51.726;5.154;2022-07-01T01:09:47;24.25;;;21.88;;
67442;SDS011;54311;51.726;5.154;2022-07-01T01:12:12;30.10;;;21.73;;
67442;SDS011;54311;51.726;5.154;2022-07-01T01:14:48;25.35;;;22.00;;
67442;SDS011;54311;51.726;5.154;2022-07-01T01:17:14;31.58;;;21.83;;
67442;SDS011;54311;51.726;5.154;2022-07-01T01:19:40;24.83;;;22.25;;
67442;SDS011;54311;51.726;5.154;2022-07-01T01:22:06;25.85;;;21.42;;
67442;SDS011;54311;51.726;5.154;2022-07-01T01:24:32;27.98;;;21.70;;
67442;SDS011;54311;51.726;5.154;2022-07-01T01:26:57;25.42;;;21.27;;
67442;SDS011;54311;51.726;5.154;2022-07-01T01:29:23;24.77;;;22.10;;
67442;SDS011;54311;51.726;5.154;2022-07-01T01:31:48;23.80;;;21.15;;
67442;SDS011;54311;51.726;5.154;2022-07-01T01:34:14;26.33;;;21.33;;
67442;SDS011;54311;51.726;5.154;2022-07-01T01:36:39;22.80;;;20.60;;
67442;SDS011;54311;51.726;5.154;2022-07-01T01:39:04;30.67;;;22.65;;
67442;SDS011;54311;51.726;5.154;2022-07-01T01:41:38;27.80;;;24.63;;
67442;SDS011;54311;51.726;5.154;2022-07-01T01:44:03;24.45;;;20.88;;
67442;SDS011;54311;51.726;5.154;2022-07-01T01:46:28;24.80;;;22.10;;
67442;SDS011;54311;51.726;5.154;2022-07-01T01:48:55;26.65;;;23.95;;
67442;SDS011;54311;51.726;5.154;2022-07-01T01:51:20;25.83;;;22.25;;
67442;SDS011;54311;51.726;5.154;2022-07-01T01:53:46;23.88;;;21.48;;
67442;SDS011;54311;51.726;5.154;2022-07-01T01:56:12;28.67;;;22.45;;
67442;SDS011;54311;51.726;5.154;2022-07-01T01:58:37;31.40;;;21.85;;
67442;SDS011;54311;51.726;5.154;2022-07-01T02:01:07;23.92;;;21.58;;
67442;SDS011;54311;51.726;5.154;2022-07-01T02:03:37;29.48;;;21.55;;
67442;SDS011;54311;51.726;5.154;2022-07-01T02:06:03;29.23;;;23.40;;
67442;SDS011;54311;51.726;5.154;2022-07-01T02:08:29;29.13;;;24.00;;
67442;SDS011;54311;51.726;5.154;2022-07-01T02:10:54;28.27;;;25.25;;
67442;SDS011;54311;51.726;5.154;2022-07-01T02:13:20;29.30;;;26.23;;
67442;SDS011;54311;51.726;5.154;2022-07-01T02:15:45;32.28;;;27.90;;
67442;SDS011;54311;51.726;5.154;2022-07-01T02:18:10;42.08;;;30.60;;
67442;SDS011;54311;51.726;5.154;2022-07-01T02:20:36;40.28;;;29.42;;
67442;SDS011;54311;51.726;5.154;2022-07-01T02:23:01;35.20;;;29.55;;
67442;SDS011;54311;51.726;5.154;2022-07-01T02:25:26;35.08;;;30.10;;
67442;SDS011;54311;51.726;5.154;2022-07-01T02:27:52;44.22;;;31.30;;
67442;SDS011;54311;51.726;5.154;2022-07-01T02:30:17;40.38;;;32.42;;
67442;SDS011;54311;51.726;5.154;2022-07-01T02:32:42;38.03;;;31.35;;
67442;SDS011;54311;51.726;5.154;2022-07-01T02:35:08;36.03;;;30.58;;
67442;SDS011;54311;51.726;5.154;2022-07-01T02:37:34;45.42;;;31.85;;
67442;SDS011;54311;51.726;5.154;2022-07-01T02:39:59;39.33;;;32.25;;
67442;SDS011;54311;51.726;5.154;2022-07-01T02:42:25;47.78;;;33.50;;
67442;SDS011;54311;51.726;5.154;2022-07-01T02:44:56;40.47;;;32.45;;
67442;SDS011;54311;51.726;5.154;2022-07-01T02:47:22;47.90;;;34.22;;
67442;SDS011;54311;51.726;5.154;2022-07-01T02:49:48;42.78;;;32.95;;
67442;SDS011;54311;51.726;5.154;2022-07-01T02:52:14;44.45;;;33.30;;
67442;SDS011;54311;51.726;5.154;2022-07-01T02:54:40;42.83;;;34.33;;
67442;SDS011;54311;51.726;5.154;2022-07-01T02:57:06;44.60;;;34.40;;
67442;SDS011;54311;51.726;5.154;2022-07-01T02:59:31;47.03;;;34.72;;
67442;SDS011;54311;51.726;5.154;2022-07-01T03:01:56;46.95;;;34.78;;
67442;SDS011;54311;51.726;5.154;2022-07-01T03:04:22;51.30;;;37.42;;
67442;SDS011;54311;51.726;5.154;2022-07-01T03:06:47;46.83;;;36.72;;
67442;SDS011;54311;51.726;5.154;2022-07-01T03:09:13;44.05;;;35.45;;
67442;SDS011;54311;51.726;5.154;2022-07-01T03:11:38;58.55;;;36.10;;
67442;SDS011;54311;51.726;5.154;2022-07-01T03:14:04;47.25;;;37.20;;
67442;SDS011;54311;51.726;5.154;2022-07-01T03:16:29;50.05;;;37.50;;
67442;SDS011;54311;51.726;5.154;2022-07-01T03:18:54;52.88;;;36.50;;
67442;SDS011;54311;51.726;5.154;2022-07-01T03:21:20;48.92;;;35.33;;
67442;SDS011;54311;51.726;5.154;2022-07-01T03:23:45;48.47;;;34.38;;
67442;SDS011;54311;51.726;5.154;2022-07-01T03:26:10;49.55;;;36.28;;
67442;SDS011;54311;51.726;5.154;2022-07-01T03:28:36;43.70;;;35.33;;
67442;SDS011;54311;51.726;5.154;2022-07-01T03:31:01;45.53;;;34.10;;
67442;SDS011;54311;51.726;5.154;2022-07-01T03:33:27;43.83;;;34.40;;
67442;SDS011;54311;51.726;5.154;2022-07-01T03:35:52;47.45;;;34.30;;
67442;SDS011;54311;51.726;5.154;2022-07-01T03:38:18;43.00;;;34.63;;
67442;SDS011;54311;51.726;5.154;2022-07-01T03:40:43;45.30;;;35.08;;
67442;SDS011;54311;51.726;5.154;2022-07-01T03:43:09;52.17;;;34.53;;
67442;SDS011;54311;51.726;5.154;2022-07-01T03:45:34;51.70;;;35.47;;
67442;SDS011;54311;51.726;5.154;2022-07-01T03:47:59;45.28;;;35.30;;
67442;SDS011;54311;51.726;5.154;2022-07-01T03:50:25;50.75;;;35.25;;
67442;SDS011;54311;51.726;5.154;2022-07-01T03:52:51;48.72;;;34.50;;
67442;SDS011;54311;51.726;5.154;2022-07-01T03:58:00;47.97;;;33.67;;
67442;SDS011;54311;51.726;5.154;2022-07-01T04:00:26;56.17;;;36.30;;
67442;SDS011;54311;51.726;5.154;2022-07-01T04:02:51;48.33;;;35.08;;
67442;SDS011;54311;51.726;5.154;2022-07-01T04:05:17;56.42;;;36.03;;
67442;SDS011;54311;51.726;5.154;2022-07-01T04:07:42;50.35;;;36.10;;
67442;SDS011;54311;51.726;5.154;2022-07-01T04:10:07;49.08;;;35.08;;
67442;SDS011;54311;51.726;5.154;2022-07-01T04:12:33;45.90;;;33.40;;
67442;SDS011;54311;51.726;5.154;2022-07-01T04:14:58;53.22;;;36.03;;
67442;SDS011;54311;51.726;5.154;2022-07-01T04:17:24;49.03;;;34.08;;
67442;SDS011;54311;51.726;5.154;2022-07-01T04:19:49;59.22;;;35.38;;
67442;SDS011;54311;51.726;5.154;2022-07-01T04:22:14;50.58;;;34.88;;
67442;SDS011;54311;51.726;5.154;2022-07-01T04:24:58;50.17;;;34.30;;
67442;SDS011;54311;51.726;5.154;2022-07-01T04:27:24;54.78;;;36.00;;
67442;SDS011;54311;51.726;5.154;2022-07-01T04:29:49;51.03;;;36.47;;
67442;SDS011;54311;51.726;5.154;2022-07-01T04:32:14;48.38;;;36.72;;
67442;SDS011;54311;51.726;5.154;2022-07-01T04:34:40;52.10;;;36.03;;
67442;SDS011;54311;51.726;5.154;2022-07-01T04:37:05;53.88;;;34.60;;
67442;SDS011;54311;51.726;5.154;2022-07-01T04:39:30;46.85;;;33.88;;
67442;SDS011;54311;51.726;5.154;2022-07-01T04:41:56;58.67;;;33.80;;
67442;SDS011;54311;51.726;5.154;2022-07-01T04:44:24;50.58;;;32.22;;
67442;SDS011;54311;51.726;5.154;2022-07-01T04:46:50;42.33;;;29.98;;
67442;SDS011;54311;51.726;5.154;2022-07-01T04:49:15;53.95;;;30.70;;
67442;SDS011;54311;51.726;5.154;2022-07-01T04:51:41;46.38;;;31.92;;
67442;SDS011;54311;51.726;5.154;2022-07-01T04:54:06;43.60;;;32.45;;
67442;SDS011;54311;51.726;5.154;2022-07-01T04:56:33;42.38;;;31.10;;
67442;SDS011;54311;51.726;5.154;2022-07-01T04:58:59;46.65;;;31.58;;
67442;SDS011;54311;51.726;5.154;2022-07-01T05:01:25;49.05;;;32.80;;
67442;SDS011;54311;51.726;5.154;2022-07-01T05:03:51;44.60;;;31.35;;
67442;SDS011;54311;51.726;5.154;2022-07-01T05:06:16;43.92;;;30.63;;
67442;SDS011;54311;51.726;5.154;2022-07-01T05:08:42;48.25;;;31.27;;
67442;SDS011;54311;51.726;5.154;2022-07-01T05:11:07;46.45;;;31.13;;
67442;SDS011;54311;51.726;5.154;2022-07-01T05:13:33;44.70;;;29.38;;
67442;SDS011;54311;51.726;5.154;2022-07-01T05:15:58;38.03;;;27.55;;
67442;SDS011;54311;51.726;5.154;2022-07-01T05:18:24;37.08;;;27.73;;
67442;SDS011;54311;51.726;5.154;2022-07-01T05:21:08;41.25;;;28.15;;
67442;SDS011;54311;51.726;5.154;2022-07-01T05:23:52;35.78;;;25.48;;
67442;SDS011;54311;51.726;5.154;2022-07-01T05:26:17;32.13;;;23.52;;
67442;SDS011;54311;51.726;5.154;2022-07-01T05:28:43;37.60;;;24.92;;
67442;SDS011;54311;51.726;5.154;2022-07-01T05:31:11;34.10;;;23.67;;
67442;SDS011;54311;51.726;5.154;2022-07-01T05:33:37;31.08;;;22.77;;
67442;SDS011;54311;51.726;5.154;2022-07-01T05:36:02;38.53;;;24.33;;
67442;SDS011;54311;51.726;5.154;2022-07-01T05:38:28;31.45;;;22.35;;
67442;SDS011;54311;51.726;5.154;2022-07-01T05:40:53;33.83;;;23.92;;
67442;SDS011;54311;51.726;5.154;2022-07-01T05:43:19;36.33;;;22.58;;
67442;SDS011;54311;51.726;5.154;2022-07-01T05:45:45;29.50;;;21.63;;
67442;SDS011;54311;51.726;5.154;2022-07-01T05:48:10;29.55;;;22.15;;
67442;SDS011;54311;51.726;5.154;2022-07-01T05:50:35;29.52;;;19.65;;
67442;SDS011;54311;51.726;5.154;2022-07-01T05:53:01;29.80;;;20.55;;
67442;SDS011;54311;51.726;5.154;2022-07-01T05:55:26;26.27;;;19.33;;
67442;SDS011;54311;51.726;5.154;2022-07-01T05:57:52;24.50;;;18.52;;
67442;SDS011;54311;51.726;5.154;2022-07-01T06:00:17;21.67;;;17.48;;
67442;SDS011;54311;51.726;5.154;2022-07-01T06:02:43;23.77;;;17.00;;
67442;SDS011;54311;51.726;5.154;2022-07-01T06:05:08;23.13;;;17.98;;
67442;SDS011;54311;51.726;5.154;2022-07-01T06:07:33;27.48;;;16.77;;
67442;SDS011;54311;51.726;5.154;2022-07-01T06:09:59;24.08;;;15.02;;
67442;SDS011;54311;51.726;5.154;2022-07-01T06:12:24;18.88;;;13.48;;
67442;SDS011;54311;51.726;5.154;2022-07-01T06:14:49;15.32;;;13.10;;
67442;SDS011;54311;51.726;5.154;2022-07-01T06:17:15;17.00;;;12.48;;
67442;SDS011;54311;51.726;5.154;2022-07-01T06:19:41;21.10;;;12.85;;
67442;SDS011;54311;51.726;5.154;2022-07-01T06:22:07;20.98;;;13.40;;
67442;SDS011;54311;51.726;5.154;2022-07-01T06:24:32;19.90;;;13.63;;
67442;SDS011;54311;51.726;5.154;2022-07-01T06:26:58;17.48;;;11.30;;
67442;SDS011;54311;51.726;5.154;2022-07-01T06:29:23;18.95;;;12.00;;
67442;SDS011;54311;51.726;5.154;2022-07-01T06:31:48;15.27;;;12.20;;
67442;SDS011;54311;51.726;5.154;2022-07-01T06:34:14;15.05;;;11.73;;
67442;SDS011;54311;51.726;5.154;2022-07-01T06:36:39;19.05;;;11.93;;
67442;SDS011;54311;51.726;5.154;2022-07-01T06:39:04;15.02;;;11.55;;
67442;SDS011;54311;51.726;5.154;2022-07-01T06:41:30;14.20;;;11.73;;
67442;SDS011;54311;51.726;5.154;2022-07-01T06:43:56;16.90;;;11.18;;
67442;SDS011;54311;51.726;5.154;2022-07-01T06:46:25;18.42;;;11.50;;
67442;SDS011;54311;51.726;5.154;2022-07-01T06:48:51;16.20;;;10.82;;
67442;SDS011;54311;51.726;5.154;2022-07-01T06:51:16;15.23;;;11.27;;
67442;SDS011;54311;51.726;5.154;2022-07-01T06:53:42;18.30;;;9.80;;
67442;SDS011;54311;51.726;5.154;2022-07-01T06:56:09;12.88;;;9.70;;
67442;SDS011;54311;51.726;5.154;2022-07-01T06:58:35;17.70;;;9.73;;
67442;SDS011;54311;51.726;5.154;2022-07-01T07:01:01;16.83;;;9.70;;
67442;SDS011;54311;51.726;5.154;2022-07-01T07:03:26;12.57;;;8.90;;
67442;SDS011;54311;51.726;5.154;2022-07-01T07:05:52;11.98;;;8.45;;
67442;SDS011;54311;51.726;5.154;2022-07-01T07:08:17;16.83;;;8.63;;
67442;SDS011;54311;51.726;5.154;2022-07-01T07:10:43;9.65;;;7.72;;
67442;SDS011;54311;51.726;5.154;2022-07-01T07:13:08;7.43;;;6.45;;
67442;SDS011;54311;51.726;5.154;2022-07-01T07:15:33;11.43;;;6.80;;
67442;SDS011;54311;51.726;5.154;2022-07-01T07:17:59;11.15;;;6.85;;
67442;SDS011;54311;51.726;5.154;2022-07-01T07:20:25;12.38;;;6.28;;
67442;SDS011;54311;51.726;5.154;2022-07-01T07:22:50;14.40;;;6.00;;
67442;SDS011;54311;51.726;5.154;2022-07-01T07:25:15;12.35;;;6.18;;
67442;SDS011;54311;51.726;5.154;2022-07-01T07:27:41;11.70;;;6.53;;
67442;SDS011;54311;51.726;5.154;2022-07-01T07:30:11;8.18;;;5.82;;
67442;SDS011;54311;51.726;5.154;2022-07-01T07:32:39;12.05;;;5.72;;
67442;SDS011;54311;51.726;5.154;2022-07-01T07:35:05;9.30;;;5.40;;
67442;SDS011;54311;51.726;5.154;2022-07-01T07:37:31;14.38;;;4.97;;
67442;SDS011;54311;51.726;5.154;2022-07-01T07:39:57;8.60;;;4.90;;
67442;SDS011;54311;51.726;5.154;2022-07-01T07:42:23;9.52;;;5.15;;
67442;SDS011;54311;51.726;5.154;2022-07-01T07:44:48;10.88;;;5.25;;
67442;SDS011;54311;51.726;5.154;2022-07-01T07:47:14;13.50;;;5.53;;
67442;SDS011;54311;51.726;5.154;2022-07-01T07:49:39;8.55;;;5.10;;
67442;SDS011;54311;51.726;5.154;2022-07-01T07:52:04;12.23;;;4.80;;
67442;SDS011;54311;51.726;5.154;2022-07-01T07:54:30;5.10;;;4.45;;
67442;SDS011;54311;51.726;5.154;2022-07-01T07:56:55;7.68;;;4.40;;
67442;SDS011;54311;51.726;5.154;2022-07-01T07:59:21;9.80;;;4.15;;
67442;SDS011;54311;51.726;5.154;2022-07-01T08:01:46;6.78;;;3.80;;
67442;SDS011;54311;51.726;5.154;2022-07-01T08:04:11;10.75;;;4.28;;
67442;SDS011;54311;51.726;5.154;2022-07-01T08:06:37;5.65;;;4.10;;
67442;SDS011;54311;51.726;5.154;2022-07-01T08:09:02;5.55;;;3.70;;
67442;SDS011;54311;51.726;5.154;2022-07-01T08:11:28;11.95;;;5.22;;
67442;SDS011;54311;51.726;5.154;2022-07-01T08:13:53;9.63;;;3.17;;
67442;SDS011;54311;51.726;5.154;2022-07-01T08:16:19;6.68;;;3.25;;
67442;SDS011;54311;51.726;5.154;2022-07-01T08:18:44;5.32;;;3.38;;
67442;SDS011;54311;51.726;5.154;2022-07-01T08:21:10;4.72;;;2.85;;
67442;SDS011;54311;51.726;5.154;2022-07-01T08:23:35;4.40;;;2.70;;
67442;SDS011;54311;51.726;5.154;2022-07-01T08:26:00;3.60;;;2.83;;
67442;SDS011;54311;51.726;5.154;2022-07-01T08:28:26;3.30;;;2.25;;
67442;SDS011;54311;51.726;5.154;2022-07-01T08:30:51;7.15;;;2.38;;
67442;SDS011;54311;51.726;5.154;2022-07-01T08:33:16;4.35;;;2.30;;
67442;SDS011;54311;51.726;5.154;2022-07-01T08:35:42;7.78;;;2.30;;
67442;SDS011;54311;51.726;5.154;2022-07-01T08:38:07;8.00;;;2.70;;
67442;SDS011;54311;51.726;5.154;2022-07-01T08:40:33;3.22;;;2.90;;
67442;SDS011;54311;51.726;5.154;2022-07-01T08:42:59;4.60;;;2.72;;
67442;SDS011;54311;51.726;5.154;2022-07-01T08:45:26;6.15;;;2.38;;
67442;SDS011;54311;51.726;5.154;2022-07-01T08:47:52;3.75;;;2.30;;
67442;SDS011;54311;51.726;5.154;2022-07-01T08:50:22;4.20;;;2.47;;
67442;SDS011;54311;51.726;5.154;2022-07-01T08:52:47;7.13;;;2.50;;
67442;SDS011;54311;51.726;5.154;2022-07-01T08:55:13;4.60;;;2.17;;
67442;SDS011;54311;51.726;5.154;2022-07-01T08:57:38;7.00;;;2.90;;
67442;SDS011;54311;51.726;5.154;2022-07-01T09:00:04;6.40;;;3.03;;
67442;SDS011;54311;51.726;5.154;2022-07-01T09:02:48;6.75;;;2.55;;
67442;SDS011;54311;51.726;5.154;2022-07-01T09:05:17;7.68;;;2.50;;
67442;SDS011;54311;51.726;5.154;2022-07-01T09:07:43;4.70;;;2.55;;
67442;SDS011;54311;51.726;5.154;2022-07-01T09:10:12;4.90;;;2.22;;
67442;SDS011;54311;51.726;5.154;2022-07-01T09:12:42;6.50;;;2.42;;
67442;SDS011;54311;51.726;5.154;2022-07-01T09:15:24;3.78;;;2.10;;
67442;SDS011;54311;51.726;5.154;2022-07-01T09:18:04;5.35;;;2.45;;
67442;SDS011;54311;51.726;5.154;2022-07-01T09:20:38;8.07;;;2.83;;
67442;SDS011;54311;51.726;5.154;2022-07-01T09:23:08;10.68;;;2.60;;
67442;SDS011;54311;51.726;5.154;2022-07-01T09:28:14;7.95;;;2.33;;
67442;SDS011;54311;51.726;5.154;2022-07-01T09:30:42;7.65;;;2.70;;
67442;SDS011;54311;51.726;5.154;2022-07-01T09:33:19;8.02;;;3.10;;
67442;SDS011;54311;51.726;5.154;2022-07-01T09:35:47;3.45;;;2.47;;
67442;SDS011;54311;51.726;5.154;2022-07-01T09:38:20;2.53;;;1.88;;
67442;SDS011;54311;51.726;5.154;2022-07-01T09:43:31;6.07;;;2.40;;
67442;SDS011;54311;51.726;5.154;2022-07-01T09:48:25;3.38;;;1.73;;
67442;SDS011;54311;51.726;5.154;2022-07-01T09:50:52;2.90;;;1.50;;
67442;SDS011;54311;51.726;5.154;2022-07-01T09:53:18;3.30;;;1.55;;
67442;SDS011;54311;51.726;5.154;2022-07-01T09:55:44;4.85;;;1.83;;
67442;SDS011;54311;51.726;5.154;2022-07-01T09:58:10;2.92;;;1.55;;
67442;SDS011;54311;51.726;5.154;2022-07-01T10:00:36;2.72;;;1.60;;
67442;SDS011;54311;51.726;5.154;2022-07-01T10:03:05;2.45;;;1.50;;
67442;SDS011;54311;51.726;5.154;2022-07-01T10:05:34;4.35;;;1.70;;
67442;SDS011;54311;51.726;5.154;2022-07-01T10:11:06;4.30;;;1.52;;
67442;SDS011;54311;51.726;5.154;2022-07-01T10:13:50;5.18;;;1.50;;
67442;SDS011;54311;51.726;5.154;2022-07-01T10:16:16;3.35;;;1.52;;
67442;SDS011;54311;51.726;5.154;2022-07-01T10:18:42;5.13;;;1.80;;
67442;SDS011;54311;51.726;5.154;2022-07-01T10:21:08;2.42;;;1.67;;
67442;SDS011;54311;51.726;5.154;2022-07-01T10:23:37;5.13;;;1.83;;
67442;SDS011;54311;51.726;5.154;2022-07-01T10:26:04;7.95;;;2.35;;
67442;SDS011;54311;51.726;5.154;2022-07-01T10:31:14;6.13;;;1.80;;
67442;SDS011;54311;51.726;5.154;2022-07-01T10:36:25;4.13;;;1.98;;
67442;SDS011;54311;51.726;5.154;2022-07-01T10:44:19;3.28;;;2.17;;
67442;SDS011;54311;51.726;5.154;2022-07-01T10:54:30;3.08;;;2.17;;
67442;SDS011;54311;51.726;5.154;2022-07-01T10:57:03;3.35;;;2.10;;
67442;SDS011;54311;51.726;5.154;2022-07-01T11:00:26;8.23;;;2.28;;
67442;SDS011;54311;51.726;5.154;2022-07-01T11:02:38;9.93;;;2.60;;
67442;SDS011;54311;51.726;5.154;2022-07-01T11:05:08;3.45;;;2.50;;
67442;SDS011;54311;51.726;5.154;2022-07-01T11:07:36;6.60;;;2.60;;
67442;SDS011;54311;51.726;5.154;2022-07-01T11:10:03;5.28;;;2.40;;
67442;SDS011;54311;51.726;5.154;2022-07-01T11:12:31;6.18;;;3.05;;
67442;SDS011;54311;51.726;5.154;2022-07-01T11:14:57;9.55;;;2.67;;
67442;SDS011;54311;51.726;5.154;2022-07-01T11:17:26;4.95;;;2.50;;
67442;SDS011;54311;51.726;5.154;2022-07-01T11:19:53;5.05;;;2.10;;
67442;SDS011;54311;51.726;5.154;2022-07-01T11:22:22;3.55;;;2.15;;
67442;SDS011;54311;51.726;5.154;2022-07-01T11:24:57;5.57;;;2.10;;
67442;SDS011;54311;51.726;5.154;2022-07-01T11:29:53;6.18;;;2.70;;
67442;SDS011;54311;51.726;5.154;2022-07-01T11:32:29;8.15;;;3.80;;
67442;SDS011;54311;51.726;5.154;2022-07-01T11:34:56;4.65;;;2.72;;
67442;SDS011;54311;51.726;5.154;2022-07-01T11:37:22;7.38;;;2.67;;
67442;SDS011;54311;51.726;5.154;2022-07-01T11:40:10;6.50;;;2.35;;
67442;SDS011;54311;51.726;5.154;2022-07-01T11:42:36;7.63;;;2.60;;
67442;SDS011;54311;51.726;5.154;2022-07-01T11:45:02;3.58;;;2.60;;
67442;SDS011;54311;51.726;5.154;2022-07-01T11:47:28;7.85;;;2.28;;
67442;SDS011;54311;51.726;5.154;2022-07-01T11:49:54;3.50;;;2.10;;
67442;SDS011;54311;51.726;5.154;2022-07-01T11:52:20;2.40;;;2.20;;
67442;SDS011;54311;51.726;5.154;2022-07-01T11:54:47;6.97;;;2.50;;
67442;SDS011;54311;51.726;5.154;2022-07-01T11:57:16;4.85;;;2.20;;
67442;SDS011;54311;51.726;5.154;2022-07-01T11:59:43;4.80;;;2.38;;
67442;SDS011;54311;51.726;5.154;2022-07-01T12:02:10;3.17;;;2.25;;
67442;SDS011;54311;51.726;5.154;2022-07-01T12:04:37;2.28;;;2.08;;
67442;SDS011;54311;51.726;5.154;2022-07-01T12:07:03;4.20;;;2.20;;
67442;SDS011;54311;51.726;5.154;2022-07-01T12:09:29;5.15;;;1.98;;
67442;SDS011;54311;51.726;5.154;2022-07-01T12:11:55;4.13;;;2.10;;
67442;SDS011;54311;51.726;5.154;2022-07-01T12:14:24;2.92;;;1.70;;
67442;SDS011;54311;51.726;5.154;2022-07-01T12:16:59;2.90;;;2.00;;
67442;SDS011;54311;51.726;5.154;2022-07-01T12:19:44;8.93;;;3.00;;
67442;SDS011;54311;51.726;5.154;2022-07-01T12:22:14;5.47;;;2.55;;
67442;SDS011;54311;51.726;5.154;2022-07-01T12:24:40;4.53;;;2.10;;
67442;SDS011;54311;51.726;5.154;2022-07-01T12:27:06;4.35;;;2.13;;
67442;SDS011;54311;51.726;5.154;2022-07-01T12:32:11;5.30;;;2.03;;
67442;SDS011;54311;51.726;5.154;2022-07-01T12:37:17;3.97;;;1.63;;
67442;SDS011;54311;51.726;5.154;2022-07-01T12:39:59;3.60;;;1.67;;
67442;SDS011;54311;51.726;5.154;2022-07-01T12:45:00;5.88;;;1.60;;
67442;SDS011;54311;51.726;5.154;2022-07-01T12:47:31;3.55;;;1.80;;
67442;SDS011;54311;51.726;5.154;2022-07-01T12:52:36;4.82;;;1.60;;
67442;SDS011;54311;51.726;5.154;2022-07-01T12:55:20;2.67;;;1.40;;
67442;SDS011;54311;51.726;5.154;2022-07-01T12:57:47;3.70;;;1.30;;
67442;SDS011;54311;51.726;5.154;2022-07-01T13:00:13;4.25;;;1.45;;
67442;SDS011;54311;51.726;5.154;2022-07-01T13:02:39;1.88;;;1.65;;
67442;SDS011;54311;51.726;5.154;2022-07-01T13:05:05;2.22;;;1.42;;
67442;SDS011;54311;51.726;5.154;2022-07-01T13:07:30;6.38;;;2.55;;
67442;SDS011;54311;51.726;5.154;2022-07-01T13:09:56;3.92;;;1.75;;
67442;SDS011;54311;51.726;5.154;2022-07-01T13:12:21;3.72;;;2.00;;
67442;SDS011;54311;51.726;5.154;2022-07-01T13:14:47;3.58;;;1.40;;
67442;SDS011;54311;51.726;5.154;2022-07-01T13:17:12;5.55;;;1.50;;
67442;SDS011;54311;51.726;5.154;2022-07-01T13:19:37;5.80;;;1.88;;
67442;SDS011;54311;51.726;5.154;2022-07-01T13:22:03;3.70;;;1.70;;
67442;SDS011;54311;51.726;5.154;2022-07-01T13:24:30;6.32;;;2.35;;
67442;SDS011;54311;51.726;5.154;2022-07-01T13:26:55;4.63;;;1.80;;
67442;SDS011;54311;51.726;5.154;2022-07-01T13:29:21;3.63;;;1.60;;
67442;SDS011;54311;51.726;5.154;2022-07-01T13:31:46;4.70;;;2.13;;
67442;SDS011;54311;51.726;5.154;2022-07-01T13:34:12;4.47;;;1.63;;
67442;SDS011;54311;51.726;5.154;2022-07-01T13:36:37;4.43;;;1.70;;
67442;SDS011;54311;51.726;5.154;2022-07-01T13:39:02;4.38;;;1.75;;
67442;SDS011;54311;51.726;5.154;2022-07-01T13:41:28;4.28;;;2.38;;
67442;SDS011;54311;51.726;5.154;2022-07-01T13:43:53;5.47;;;2.08;;
67442;SDS011;54311;51.726;5.154;2022-07-01T13:46:18;5.93;;;2.08;;
67442;SDS011;54311;51.726;5.154;2022-07-01T13:48:44;4.72;;;1.95;;
67442;SDS011;54311;51.726;5.154;2022-07-01T13:51:09;4.47;;;1.95;;
67442;SDS011;54311;51.726;5.154;2022-07-01T13:53:35;4.88;;;1.73;;
67442;SDS011;54311;51.726;5.154;2022-07-01T13:56:00;8.88;;;2.00;;
67442;SDS011;54311;51.726;5.154;2022-07-01T13:58:25;3.65;;;2.03;;
67442;SDS011;54311;51.726;5.154;2022-07-01T14:00:51;5.43;;;2.10;;
67442;SDS011;54311;51.726;5.154;2022-07-01T14:03:16;5.85;;;2.30;;
67442;SDS011;54311;51.726;5.154;2022-07-01T14:05:41;6.15;;;2.25;;
67442;SDS011;54311;51.726;5.154;2022-07-01T14:08:06;4.95;;;2.38;;
67442;SDS011;54311;51.726;5.154;2022-07-01T14:10:32;4.65;;;2.55;;
67442;SDS011;54311;51.726;5.154;2022-07-01T14:13:00;5.03;;;2.40;;
67442;SDS011;54311;51.726;5.154;2022-07-01T14:15:26;5.47;;;2.47;;
67442;SDS011;54311;51.726;5.154;2022-07-01T14:17:51;6.38;;;2.30;;
67442;SDS011;54311;51.726;5.154;2022-07-01T14:20:17;5.25;;;2.90;;
67442;SDS011;54311;51.726;5.154;2022-07-01T14:22:42;7.38;;;2.38;;
67442;SDS011;54311;51.726;5.154;2022-07-01T14:25:07;5.82;;;2.90;;
67442;SDS011;54311;51.726;5.154;2022-07-01T14:27:33;5.22;;;2.50;;
67442;SDS011;54311;51.726;5.154;2022-07-01T14:29:58;8.25;;;2.58;;
67442;SDS011;54311;51.726;5.154;2022-07-01T14:32:24;5.40;;;3.35;;
67442;SDS011;54311;51.726;5.154;2022-07-01T14:34:52;4.18;;;2.40;;
67442;SDS011;54311;51.726;5.154;2022-07-01T14:37:18;7.70;;;2.75;;
67442;SDS011;54311;51.726;5.154;2022-07-01T14:39:43;6.78;;;2.92;;
67442;SDS011;54311;51.726;5.154;2022-07-01T14:42:09;8.13;;;2.85;;
67442;SDS011;54311;51.726;5.154;2022-07-01T14:44:34;3.55;;;2.58;;
67442;SDS011;54311;51.726;5.154;2022-07-01T14:46:59;8.20;;;2.75;;
67442;SDS011;54311;51.726;5.154;2022-07-01T14:49:25;7.63;;;2.67;;
67442;SDS011;54311;51.726;5.154;2022-07-01T14:51:50;6.32;;;2.65;;
67442;SDS011;54311;51.726;5.154;2022-07-01T14:54:15;2.97;;;2.45;;
67442;SDS011;54311;51.726;5.154;2022-07-01T14:56:41;4.32;;;2.08;;
67442;SDS011;54311;51.726;5.154;2022-07-01T14:59:06;5.40;;;1.98;;
67442;SDS011;54311;51.726;5.154;2022-07-01T15:01:32;3.03;;;1.92;;
67442;SDS011;54311;51.726;5.154;2022-07-01T15:03:58;4.93;;;2.03;;
67442;SDS011;54311;51.726;5.154;2022-07-01T15:06:23;4.00;;;2.33;;
67442;SDS011;54311;51.726;5.154;2022-07-01T15:08:48;2.45;;;1.92;;
67442;SDS011;54311;51.726;5.154;2022-07-01T15:11:14;3.20;;;2.22;;
67442;SDS011;54311;51.726;5.154;2022-07-01T15:13:39;2.83;;;1.98;;
67442;SDS011;54311;51.726;5.154;2022-07-01T15:16:05;3.72;;;2.33;;